createdAt,value
2023-04-21T00:01:50.119Z,12.68
2023-04-21T00:06:44.834Z,12.63
2023-04-21T00:11:38.219Z,12.48
2023-04-21T00:16:31.365Z,12.77
2023-04-21T00:21:24.564Z,12.78
2023-04-21T00:26:20.039Z,12.77
2023-04-21T00:31:15.399Z,12.74
2023-04-21T00:36:08.745Z,12.66
2023-04-21T00:41:01.997Z,12.16
2023-04-21T00:45:56.540Z,12.43
2023-04-21T00:50:49.907Z,12.14
2023-04-21T00:55:43.329Z,12.34
2023-04-21T01:00:36.587Z,12.64
2023-04-21T01:05:33.080Z,11.56
2023-04-21T01:10:26.522Z,12.72
2023-04-21T01:15:19.783Z,12.52
2023-04-21T01:20:15.745Z,12.46
2023-04-21T01:25:11.416Z,12.69
2023-04-21T01:30:05.479Z,12.35
2023-04-21T01:35:00.048Z,12.73
2023-04-21T01:39:55.903Z,12.55
2023-04-21T01:44:50.845Z,12.56
2023-04-21T01:49:44.106Z,12.80
2023-04-21T01:54:38.927Z,12.30
2023-04-21T01:59:32.052Z,12.45
2023-04-21T02:04:26.833Z,12.53
2023-04-21T02:09:20.256Z,12.79
2023-04-21T02:14:13.569Z,12.74
2023-04-21T02:19:07.754Z,12.60
2023-04-21T02:24:02.384Z,12.70
2023-04-21T02:28:55.572Z,12.60
2023-04-21T02:33:48.684Z,12.42
2023-04-21T02:38:41.836Z,12.46
2023-04-21T02:43:38.125Z,12.35
2023-04-21T02:48:31.359Z,12.07
2023-04-21T02:53:24.483Z,12.23
2023-04-21T02:58:19.054Z,12.13
2023-04-21T03:03:13.794Z,12.01
2023-04-21T03:08:09.133Z,11.71
2023-04-21T03:13:02.210Z,11.89
2023-04-21T03:17:57.861Z,11.87
2023-04-21T03:22:54.685Z,11.52
2023-04-21T03:27:47.870Z,11.83
2023-04-21T03:32:41.120Z,11.77
2023-04-21T03:37:34.244Z,11.73
2023-04-21T03:42:30.242Z,11.72
2023-04-21T03:47:23.895Z,11.44
2023-04-21T03:52:20.875Z,11.38
2023-04-21T03:57:14.020Z,11.16
2023-04-21T04:02:08.714Z,11.57
2023-04-21T04:07:04.852Z,11.42
2023-04-21T04:11:58.045Z,11.62
2023-04-21T04:16:51.131Z,11.52
2023-04-21T04:21:47.004Z,11.88
2023-04-21T04:26:41.393Z,12.00
2023-04-21T04:31:34.863Z,11.81
2023-04-21T04:36:28.576Z,12.21
2023-04-21T04:41:24.234Z,12.29
2023-04-21T04:46:17.443Z,12.40
2023-04-21T04:51:10.593Z,12.39
2023-04-21T04:56:03.872Z,12.58
2023-04-21T05:00:58.377Z,12.72
2023-04-21T05:05:51.482Z,12.51
2023-04-21T05:10:44.559Z,12.92
2023-04-21T05:15:37.582Z,13.09
2023-04-21T05:20:32.263Z,13.24
2023-04-21T05:25:25.498Z,13.36
2023-04-21T05:30:18.727Z,13.12
2023-04-21T05:35:12.214Z,13.31
2023-04-21T05:40:08.094Z,13.57
2023-04-21T05:45:01.312Z,13.73
2023-04-21T05:49:55.817Z,13.91
2023-04-21T05:54:49.012Z,14.05
2023-04-21T05:59:52.508Z,14.08
2023-04-21T06:04:45.987Z,14.13
2023-04-21T06:09:39.312Z,14.30
2023-04-21T06:14:32.552Z,14.30
2023-04-21T06:19:29.001Z,14.31
2023-04-21T06:24:25.568Z,14.27
2023-04-21T06:29:23.429Z,14.15
2023-04-21T06:34:20.326Z,14.14
2023-04-21T06:39:16.524Z,14.16
2023-04-21T06:44:14.046Z,13.95
2023-04-21T06:49:07.264Z,14.28
2023-04-21T06:54:01.187Z,14.26
2023-04-21T06:58:55.704Z,14.69
2023-04-21T07:03:48.869Z,14.85
2023-04-21T07:08:42.351Z,14.83
2023-04-21T07:13:35.444Z,15.29
2023-04-21T07:18:35.678Z,14.53
2023-04-21T07:23:28.540Z,15.61
2023-04-21T07:28:24.399Z,15.72
2023-04-21T07:33:17.721Z,15.27
2023-04-21T07:38:12.466Z,16.02
2023-04-21T07:43:05.615Z,15.28
2023-04-21T07:47:59.348Z,16.39
2023-04-21T07:52:52.570Z,16.51
2023-04-21T07:57:47.171Z,15.81
2023-04-21T08:02:40.590Z,16.77
2023-04-21T08:07:42.122Z,16.79
2023-04-21T08:12:35.384Z,16.91
2023-04-21T08:17:30.019Z,17.35
2023-04-21T08:22:23.406Z,16.55
2023-04-21T08:27:16.793Z,17.82
2023-04-21T08:32:10.132Z,18.88
2023-04-21T08:37:04.758Z,19.19
2023-04-21T08:42:00.184Z,20.18
2023-04-21T08:46:55.455Z,21.23
2023-04-21T08:51:48.879Z,22.29
2023-04-21T08:56:43.440Z,22.96
2023-04-21T09:02:10.950Z,23.13
2023-04-21T09:07:05.209Z,22.85
2023-04-21T09:12:00.256Z,22.46
2023-04-21T09:17:01.601Z,21.69
2023-04-21T09:21:57.474Z,22.64
2023-04-21T09:26:52.063Z,22.67
2023-04-21T09:31:46.891Z,23.29
2023-04-21T09:36:45.120Z,22.29
2023-04-21T09:41:40.818Z,22.02
2023-04-21T09:46:36.048Z,21.79
2023-04-21T09:51:48.625Z,21.11
2023-04-21T09:56:47.726Z,20.94
2023-04-21T10:01:41.743Z,20.47
2023-04-21T10:06:36.536Z,20.49
2023-04-21T10:11:29.781Z,20.97
2023-04-21T10:16:23.401Z,20.97
2023-04-21T10:21:22.161Z,20.29
2023-04-21T10:26:22.249Z,20.67
2023-04-21T10:31:20.277Z,20.29
2023-04-21T10:36:15.806Z,19.99
2023-04-21T10:41:29.041Z,19.97
2023-04-21T10:46:41.317Z,19.45
2023-04-21T10:51:34.654Z,19.49
2023-04-21T10:56:30.365Z,18.92
2023-04-21T11:01:23.629Z,19.52
2023-04-21T11:06:18.314Z,19.63
2023-04-21T11:11:11.588Z,20.01
2023-04-21T11:16:09.494Z,20.05
2023-04-21T11:21:20.275Z,20.38
2023-04-21T11:26:16.244Z,19.82
2023-04-21T11:31:12.394Z,20.89
2023-04-21T11:36:07.617Z,21.15
2023-04-21T11:41:00.963Z,21.76
2023-04-21T11:45:54.437Z,21.96
2023-04-21T11:50:52.320Z,21.83
2023-04-21T11:55:46.848Z,20.96
2023-04-21T12:00:40.821Z,20.66
2023-04-21T12:05:37.208Z,20.32
2023-04-21T12:10:32.544Z,19.84
2023-04-21T12:15:31.447Z,19.70
2023-04-21T12:20:31.164Z,19.63
2023-04-21T12:25:25.360Z,19.50
2023-04-21T12:30:28.556Z,19.35
2023-04-21T12:35:24.711Z,19.29
2023-04-21T12:40:24.387Z,19.67
2023-04-21T12:45:19.659Z,20.02
2023-04-21T12:50:14.408Z,19.63
2023-04-21T12:55:10.245Z,20.15
2023-04-21T13:00:05.055Z,20.08
2023-04-21T13:04:58.247Z,20.11
2023-04-21T13:09:52.845Z,19.64
2023-04-21T13:14:46.374Z,19.06
2023-04-21T13:19:39.694Z,19.67
2023-04-21T13:24:32.964Z,20.11
2023-04-21T13:29:30.449Z,20.25
2023-04-21T13:34:24.315Z,20.17
2023-04-21T13:39:20.230Z,20.02
2023-04-21T13:44:15.832Z,19.96
2023-04-21T13:49:12.867Z,20.63
2023-04-21T13:54:06.346Z,20.61
2023-04-21T13:59:00.637Z,20.78
2023-04-21T14:03:57.550Z,20.52
2023-04-21T14:08:56.141Z,20.54
2023-04-21T14:14:05.328Z,20.99
2023-04-21T14:19:03.611Z,21.05
2023-04-21T14:23:58.154Z,21.09
2023-04-21T14:28:51.390Z,21.08
2023-04-21T14:33:51.018Z,20.81
2023-04-21T14:38:44.230Z,20.41
2023-04-21T14:43:39.104Z,20.42
2023-04-21T14:48:33.016Z,21.15
2023-04-21T14:53:26.672Z,21.51
2023-04-21T14:58:19.944Z,21.55
2023-04-21T15:03:14.588Z,21.63
2023-04-21T15:08:11.913Z,21.67
2023-04-21T15:13:05.682Z,21.21
2023-04-21T15:17:58.876Z,21.06
2023-04-21T15:22:53.397Z,20.54
2023-04-21T15:27:46.841Z,20.31
2023-04-21T15:32:40.785Z,19.97
2023-04-21T15:37:34.817Z,19.66
2023-04-21T15:42:34.134Z,19.71
2023-04-21T15:47:33.895Z,18.80
2023-04-21T15:52:27.704Z,18.73
2023-04-21T15:57:24.643Z,19.16
2023-04-21T16:02:28.815Z,18.89
2023-04-21T16:07:22.235Z,18.95
2023-04-21T16:12:20.863Z,18.84
2023-04-21T16:17:14.917Z,18.15
2023-04-21T16:22:20.278Z,18.08
2023-04-21T16:27:24.606Z,18.30
2023-04-21T16:32:29.626Z,17.85
2023-04-21T16:37:48.129Z,18.31
2023-04-21T16:42:44.585Z,17.99
2023-04-21T16:47:45.106Z,17.96
2023-04-21T16:52:38.803Z,17.81
2023-04-21T16:57:39.766Z,17.35
2023-04-21T17:02:33.028Z,17.65
2023-04-21T17:07:32.865Z,16.87
2023-04-21T17:12:26.681Z,17.37
2023-04-21T17:17:23.788Z,17.23
2023-04-21T17:22:17.069Z,16.99
2023-04-21T17:27:11.325Z,16.77
2023-04-21T17:32:04.746Z,16.99
2023-04-21T17:36:59.441Z,16.70
2023-04-21T17:41:52.715Z,16.75
2023-04-21T17:46:46.464Z,16.29
2023-04-21T17:51:40.752Z,16.05
2023-04-21T17:56:35.307Z,15.54
2023-04-21T18:01:29.812Z,15.79
2023-04-21T18:06:23.598Z,16.04
2023-04-21T18:11:16.748Z,16.38
2023-04-21T18:16:11.481Z,16.44
2023-04-21T18:21:04.984Z,16.43
2023-04-21T18:26:00.311Z,16.39
2023-04-21T18:31:10.907Z,15.33
2023-04-21T18:36:08.401Z,16.33
2023-04-21T18:41:01.578Z,16.20
2023-04-21T18:45:54.706Z,16.16
2023-04-21T18:50:47.924Z,16.00
2023-04-21T18:55:42.544Z,15.94
2023-04-21T19:00:38.999Z,15.90
2023-04-21T19:05:34.874Z,15.93
2023-04-21T19:10:31.310Z,15.84
2023-04-21T19:15:26.433Z,15.83
2023-04-21T19:20:19.819Z,15.59
2023-04-21T19:25:13.371Z,15.72
2023-04-21T19:30:12.362Z,15.67
2023-04-21T19:35:09.832Z,15.28
2023-04-21T19:40:09.712Z,15.10
2023-04-21T19:45:19.749Z,15.32
2023-04-21T19:50:17.947Z,15.47
2023-04-21T19:55:12.150Z,15.44
2023-04-21T20:00:12.530Z,15.30
2023-04-21T20:05:09.588Z,15.37
2023-04-21T20:10:08.242Z,15.33
2023-04-21T20:15:02.902Z,15.05
2023-04-21T20:19:56.320Z,15.11
2023-04-21T20:24:52.081Z,15.00
2023-04-21T20:29:47.677Z,14.97
2023-04-21T20:34:40.860Z,14.86
2023-04-21T20:39:34.144Z,14.89
2023-04-21T20:44:31.392Z,15.13
2023-04-21T20:49:28.186Z,15.13
2023-04-21T20:54:22.469Z,15.03
2023-04-21T20:59:17.782Z,15.20
2023-04-21T21:04:11.150Z,14.93
2023-04-21T21:09:06.118Z,15.06
2023-04-21T21:13:59.319Z,15.00
2023-04-21T21:18:54.656Z,15.01
2023-04-21T21:23:47.955Z,15.23
2023-04-21T21:28:42.561Z,15.08
2023-04-21T21:33:36.430Z,15.05
2023-04-21T21:38:35.652Z,14.56
2023-04-21T21:43:28.740Z,15.06
2023-04-21T21:48:23.883Z,15.10
2023-04-21T21:53:17.110Z,14.78
2023-04-21T21:58:10.311Z,14.95
2023-04-21T22:03:03.610Z,14.89
2023-04-21T22:07:58.374Z,14.61
2023-04-21T22:12:51.725Z,14.64
2023-04-21T22:17:45.578Z,14.71
2023-04-21T22:22:40.469Z,14.45
2023-04-21T22:27:35.060Z,14.68
2023-04-21T22:32:29.321Z,14.54
2023-04-21T22:37:22.468Z,14.52
2023-04-21T22:42:15.939Z,14.29
2023-04-21T22:47:10.830Z,14.66
2023-04-21T22:52:04.033Z,14.67
2023-04-21T22:56:57.657Z,14.00
2023-04-21T23:01:51.052Z,14.66
2023-04-21T23:06:45.700Z,14.46
2023-04-21T23:11:39.231Z,14.45
2023-04-21T23:16:32.315Z,14.46
2023-04-21T23:21:25.619Z,14.42
2023-04-21T23:26:20.214Z,14.27
2023-04-21T23:31:13.514Z,14.19
2023-04-21T23:36:07.176Z,14.11
2023-04-21T23:41:00.985Z,14.33
2023-04-21T23:45:55.595Z,14.37
2023-04-21T23:50:48.788Z,14.10
2023-04-21T23:55:46.195Z,14.39
